This is the latest recevied weather packets stored in our database for station/object kj4yre. If no packets are shown the sender has not sent any weather packets the latest 10 day(s).
| Time | Temp. | Humidity | Pressure | Rain* | Wind** | Luminosity | Snow |
|---|---|---|---|---|---|---|---|
| 1777489938 | 21.67° C | 73% | 1011.6 hPa | 0 mm | - | - | - |
| 1777489336 | 21.67° C | 72% | 1011.8 hPa | 0 mm | - | - | - |
| 1777489037 | 21.67° C | 70% | 1011.9 hPa | 0 mm | - | - | - |
| 1777487236 | 21.67° C | 72% | 1012.5 hPa | 0 mm | - | - | - |
| 1777486036 | 21.11° C | 71% | 1012.8 hPa | 0 mm | - | - | - |
| 1777485737 | 21.11° C | 72% | 1012.8 hPa | 0 mm | - | - | - |
| 1777485135 | 20.56° C | 73% | 1012.8 hPa | 0 mm | - | - | - |
| 1777479436 | 20° C | 73% | 1014.3 hPa | 0 mm | - | - | - |
| 1777479134 | 20.56° C | 73% | 1014.3 hPa | 0 mm | - | - | - |
| 1777476136 | 18.89° C | 78% | 1015.2 hPa | 0 mm | - | - | - |
| 1777475835 | 18.89° C | 78% | 1015.3 hPa | 0 mm | - | - | - |
| 1777475537 | 18.33° C | 80% | 1015.5 hPa | 0 mm | - | - | - |
| 1777474936 | 17.78° C | 82% | 1015.5 hPa | 0 mm | - | - | - |
| 1777474336 | 17.22° C | 83% | 1015.7 hPa | 0 mm | - | - | - |
| 1777470136 | 15° C | 88% | 1016.5 hPa | 0 mm | - | - | - |
| 1777469235 | 15° C | 88% | 1016.4 hPa | 0 mm | - | - | - |
| 1777468037 | 14.44° C | 89% | 1016.6 hPa | 0 mm | - | - | - |
| 1777465335 | 12.22° C | 92% | 1016.8 hPa | 0 mm | - | - | - |
| 1777462937 | 11.11° C | 98% | 1016 hPa | 0 mm | - | - | - |
| 1777459337 | 8.33° C | 100% | 1015.3 hPa | 0 mm | - | - | - |
| 1777458436 | 8.33° C | 100% | 1015.3 hPa | 0 mm | - | - | - |
| 1777457235 | 7.78° C | 100% | 1015.3 hPa | 0 mm | - | - | - |
| 1777454235 | 7.78° C | 100% | 1015.9 hPa | 0 mm | - | - | - |
| 1777453635 | 7.78° C | 100% | 1015.8 hPa | 0 mm | - | - | - |
| 1777453338 | 7.78° C | 100% | 1015.8 hPa | 0 mm | - | - | - |
* Rain latest hour (hover to see other rain measurements)
** Current wind speed in m/s (hover to see current wind gust speed)